METAR Data
IDs: Format: Raw Decoded Include TAF

Data at: 1142 UTC 16 Oct 2018

PAFA 161053Z 03006KT 10SM BKN070 OVC090 08/04 A2932 RMK AO2 RAB22E39 SLP935 P0000 T00830044 $
PAFA 160953Z 00000KT 10SM FEW070 OVC110 07/04 A2934 RMK AO2 SLP942 T00670044 $
PAFA 160853Z 06004KT 10SM BKN065 OVC090 07/04 A2936 RMK AO2 RAE37 SLP947 P0000 60001 T00670044 400721044 56026 $
PAFA 160753Z 07004KT 10SM -RA FEW060 OVC090 07/05 A2938 RMK AO2 RAB26 SLP956 P0001 T00670050 $
PAFA 160653Z 02008KT 10SM BKN060 BKN075 OVC090 07/04 A2940 RMK AO2 RAE43 SLP964 P0000 T00670044 $
PAFA 160553Z 03006KT 10SM -RA SCT050 BKN065 OVC090 05/03 A2944 RMK AO2 SLP976 P0002 60005 T00500033 10067 20044 56030 $
PAFA 160453Z 03005KT 8SM -RA SCT050 OVC060 04/03 A2946 RMK AO2 SLP984 P0003 T00440028 $
PAFA 160353Z 04006KT 10SM -RA SCT055 BKN060 OVC075 06/01 A2950 RMK AO2 SLP998 P0000 T00560011
PAFA 160253Z 01004KT 10SM -RA SCT060 BKN075 OVC110 06/M01 A2953 RMK AO2 RAB18 SLP007 P0000 60000 T00561006 56023
PAFA 160153Z 05004KT 10SM SCT070 BKN100 OVC200 06/00 A2953 RMK AO2 SLP009 T00560000
PAFA 160053Z 03009KT 10SM SCT065 BKN110 OVC160 06/M01 A2956 RMK AO2 SLP018 T00611011
PAFA 152353Z COR 04006KT 10SM SCT070 BKN120 OVC200 07/00 A2960 RMK AO2 SLP030 T00670000 10067 21028 58022
PAFA 152253Z 04004KT 10SM FEW070 BKN130 BKN200 05/01 A2963 RMK AO2 SLP041 T00500006
PAFA 152153Z 02005KT 10SM SCT110 BKN200 05/M01 A2964 RMK AO2 SLP045 T00501006
PAFA 152053Z 03006KT 10SM SCT110 BKN200 04/M01 A2966 RMK AO2 SLP053 T00391006 56018
PAFA 151953Z 04004KT 10SM SCT110 BKN200 03/M01 A2968 RMK AO2 SLP059 T00281011
PAFA 151853Z 03005KT 10SM SCT110 SCT200 00/M02 A2969 RMK AO2 SLP063 T00001022
PAFA 151753Z 04005KT 10SM SCT100 SCT200 M03/M04 A2972 RMK AO2 SLP072 T10281044 11011 21044 58007
PAFA 151653Z 02004KT 10SM FEW100 SCT200 M04/M05 A2973 RMK AO2 SLP077 T10391050
PAFA 151553Z 36003KT 10SM FEW100 SCT200 M04/M05 A2973 RMK AO2 SLP078 T10441050
PAFA 151453Z 36003KT 10SM SCT200 M03/M04 A2974 RMK AO2 SLP079 T10281039 58007 $
PAFA 151353Z 03004KT 10SM SCT200 M03/M04 A2975 RMK AO2 SLP081 T10281039 $
PAFA 151253Z 04006KT 10SM SCT200 M02/M03 A2976 RMK AO2 SLP084 T10171033 $
PAFA 151153Z 03005KT 10SM SCT200 M02/M03 A2976 RMK AO2 SLP085 T10171033 10011 21028 58009 $
PAFA 151053Z 04004KT 10SM SCT250 M02/M03 A2978 RMK AO2 SLP091 T10171028 $
PAFA 150953Z 03007KT 10SM SCT250 00/M02 A2978 RMK AO2 SLP093 T00001017 $
PAFA 150853Z 04004KT 10SM SCT250 M01/M02 A2979 RMK AO2 SLP094 T10061017 400781022 56009 $
PAFA 150753Z 06004KT 10SM SCT230 M01/M02 A2979 RMK AO2 SLP097 T10061017 $
PAFA 150653Z 02005KT 10SM SCT230 M02/M02 A2979 RMK AO2 SLP097 T10171022 $
PAFA 150553Z 05003KT 10SM FEW045 SCT230 00/M01 A2982 RMK AO2 SLP105 T00001011 10078 20000 53002 $
PAFA 150453Z 02004KT 10SM FEW045 SCT210 01/M01 A2980 RMK AO2 SLP101 T00061006 $
PAFA 150353Z 02006KT 10SM FEW045 SCT210 02/00 A2979 RMK AO2 SLP096 T00170000 $
PAFA 150253Z 02004KT 10SM FEW045 SCT210 03/01 A2981 RMK AO2 SLP101 T00280006 58022 $
PAFA 150153Z 36004KT 10SM FEW045 SCT220 04/01 A2983 RMK AO2 SLP110 T00390011 $
PAFA 150053Z 36004KT 10SM FEW045 BKN240 07/02 A2986 RMK AO2 SLP119 T00670022 $
PAFA 142353Z 00000KT 10SM FEW045 BKN240 07/02 A2987 RMK AO2 SLP124 T00670022 10072 20011 58004 $